createdAt,value
2022-10-13T00:01:10.405Z,10.70
2022-10-13T00:03:47.173Z,10.70
2022-10-13T00:06:22.017Z,10.70
2022-10-13T00:08:56.558Z,10.60
2022-10-13T00:11:30.470Z,10.70
2022-10-13T00:14:04.742Z,10.80
2022-10-13T00:16:36.848Z,10.90
2022-10-13T00:19:12.883Z,11.10
2022-10-13T00:21:47.022Z,11.20
2022-10-13T00:24:18.858Z,11.30
2022-10-13T00:26:52.336Z,11.40
2022-10-13T00:29:24.379Z,11.50
2022-10-13T00:31:56.261Z,11.50
2022-10-13T00:34:28.475Z,11.50
2022-10-13T00:37:00.352Z,11.50
2022-10-13T00:39:32.627Z,11.50
2022-10-13T00:42:06.561Z,11.40
2022-10-13T00:45:00.935Z,11.40
2022-10-13T00:47:42.007Z,11.30
2022-10-13T00:50:22.286Z,11.20
2022-10-13T00:53:01.248Z,11.20
2022-10-13T00:55:36.895Z,11.10
2022-10-13T00:58:16.036Z,11.00
2022-10-13T01:00:53.099Z,11.00
2022-10-13T01:03:26.435Z,10.90
2022-10-13T01:06:01.500Z,10.90
2022-10-13T01:08:35.355Z,10.80
2022-10-13T01:11:07.387Z,10.80
2022-10-13T01:13:58.326Z,10.80
2022-10-13T01:17:25.569Z,10.70
2022-10-13T01:20:37.148Z,10.70
2022-10-13T01:23:47.635Z,10.60
2022-10-13T01:27:21.773Z,10.60
2022-10-13T01:30:19.934Z,10.60
2022-10-13T01:33:18.905Z,10.60
2022-10-13T01:36:39.764Z,10.60
2022-10-13T01:39:40.406Z,10.60
2022-10-13T01:42:24.409Z,10.60
2022-10-13T01:45:03.871Z,10.50
2022-10-13T01:47:39.619Z,10.50
2022-10-13T01:50:14.680Z,10.60
2022-10-13T01:52:50.205Z,10.60
2022-10-13T01:55:22.643Z,10.70
2022-10-13T01:57:54.613Z,10.80
2022-10-13T02:00:26.806Z,10.80
2022-10-13T02:03:39.953Z,10.80
2022-10-13T02:06:39.555Z,10.80
2022-10-13T02:09:43.094Z,10.80
2022-10-13T02:13:02.542Z,10.80
2022-10-13T02:15:49.890Z,10.70
2022-10-13T02:18:32.596Z,10.70
2022-10-13T02:21:06.374Z,10.70
2022-10-13T02:23:38.572Z,10.60
2022-10-13T02:26:11.288Z,10.60
2022-10-13T02:28:48.116Z,10.60
2022-10-13T02:31:20.281Z,10.60
2022-10-13T02:33:52.272Z,10.60
2022-10-13T02:36:24.407Z,10.60
2022-10-13T02:38:56.386Z,10.60
2022-10-13T02:41:28.403Z,10.60
2022-10-13T02:44:00.479Z,10.60
2022-10-13T02:46:32.345Z,10.60
2022-10-13T02:49:04.816Z,10.60
2022-10-13T02:51:40.176Z,10.60
2022-10-13T02:54:12.798Z,10.60
2022-10-13T02:56:45.113Z,10.60
2022-10-13T02:59:17.033Z,10.60
2022-10-13T03:01:49.142Z,10.60
2022-10-13T03:04:21.216Z,10.50
2022-10-13T03:06:53.189Z,10.50
2022-10-13T03:09:25.122Z,10.50
2022-10-13T03:11:57.625Z,10.50
2022-10-13T03:14:29.669Z,10.50
2022-10-13T03:17:02.274Z,10.50
2022-10-13T03:19:34.285Z,10.60
2022-10-13T03:22:06.190Z,10.60
2022-10-13T03:24:38.063Z,10.70
2022-10-13T03:27:10.403Z,10.80
2022-10-13T03:29:42.325Z,10.80
2022-10-13T03:32:14.412Z,10.90
2022-10-13T03:34:47.192Z,11.00
2022-10-13T03:37:22.279Z,11.00
2022-10-13T03:39:54.132Z,11.00
2022-10-13T03:42:26.365Z,11.10
2022-10-13T03:44:58.271Z,11.10
2022-10-13T03:47:30.807Z,11.10
2022-10-13T03:50:06.617Z,11.10
2022-10-13T03:52:40.205Z,11.10
2022-10-13T03:55:12.092Z,11.10
2022-10-13T03:57:44.062Z,11.10
2022-10-13T04:00:16.412Z,11.10
2022-10-13T04:02:49.722Z,11.10
2022-10-13T04:05:22.378Z,11.20
2022-10-13T04:07:54.217Z,11.20
2022-10-13T04:10:26.455Z,11.20
2022-10-13T04:12:58.474Z,11.20
2022-10-13T04:15:30.593Z,11.30
2022-10-13T04:18:08.750Z,11.30
2022-10-13T04:20:41.436Z,11.40
2022-10-13T04:23:13.414Z,11.40
2022-10-13T04:25:45.511Z,11.40
2022-10-13T04:28:17.845Z,11.40
2022-10-13T04:30:49.847Z,11.40
2022-10-13T04:33:21.909Z,11.30
2022-10-13T04:35:53.881Z,11.30
2022-10-13T04:38:27.000Z,11.30
2022-10-13T04:40:59.350Z,11.20
2022-10-13T04:43:34.505Z,11.20
2022-10-13T04:46:14.776Z,11.10
2022-10-13T04:48:54.532Z,11.10
2022-10-13T04:51:27.332Z,11.10
2022-10-13T04:54:01.622Z,11.10
2022-10-13T04:56:33.865Z,11.10
2022-10-13T04:59:06.282Z,11.10
2022-10-13T05:01:38.632Z,11.10
2022-10-13T05:04:10.879Z,11.00
2022-10-13T05:07:05.301Z,11.00
2022-10-13T05:09:35.342Z,11.00
2022-10-13T05:12:07.369Z,11.00
2022-10-13T05:14:39.279Z,10.90
2022-10-13T05:17:11.242Z,10.90
2022-10-13T05:19:43.325Z,10.90
2022-10-13T05:22:15.791Z,10.90
2022-10-13T05:24:48.050Z,10.80
2022-10-13T05:27:20.459Z,10.80
2022-10-13T05:29:53.837Z,10.80
2022-10-13T05:32:25.867Z,10.80
2022-10-13T05:34:57.925Z,10.90
2022-10-13T05:37:30.049Z,10.90
2022-10-13T05:40:02.293Z,10.90
2022-10-13T05:42:35.908Z,10.90
2022-10-13T05:45:11.599Z,10.90
2022-10-13T05:47:43.661Z,10.90
2022-10-13T05:50:15.748Z,11.00
2022-10-13T05:52:47.828Z,11.00
2022-10-13T05:55:20.280Z,11.10
2022-10-13T05:57:52.697Z,11.10
2022-10-13T06:00:24.749Z,11.10
2022-10-13T06:03:08.995Z,11.10
2022-10-13T06:05:47.477Z,11.20
2022-10-13T06:08:19.399Z,11.20
2022-10-13T06:10:51.494Z,11.20
2022-10-13T06:13:23.545Z,11.30
2022-10-13T06:15:55.641Z,11.30
2022-10-13T06:18:27.952Z,11.40
2022-10-13T06:21:00.035Z,11.40
2022-10-13T06:23:32.238Z,11.40
2022-10-13T06:26:04.283Z,11.50
2022-10-13T06:28:37.520Z,11.50
2022-10-13T06:31:09.827Z,11.50
2022-10-13T06:33:41.980Z,11.60
2022-10-13T06:36:14.149Z,11.60
2022-10-13T06:38:46.995Z,11.60
2022-10-13T06:41:19.122Z,11.60
2022-10-13T06:43:51.188Z,11.70
2022-10-13T06:46:23.212Z,11.70
2022-10-13T06:48:55.321Z,11.70
2022-10-13T06:51:27.473Z,11.80
2022-10-13T06:53:59.626Z,11.80
2022-10-13T06:56:31.770Z,11.80
2022-10-13T06:59:03.890Z,11.90
2022-10-13T07:01:41.234Z,11.90
2022-10-13T07:04:14.193Z,11.90
2022-10-13T07:06:46.527Z,12.00
2022-10-13T07:09:19.990Z,12.00
2022-10-13T07:11:54.915Z,12.00
2022-10-13T07:14:29.926Z,12.00
2022-10-13T07:17:03.079Z,12.10
2022-10-13T07:19:34.993Z,12.10
2022-10-13T07:22:07.033Z,12.20
2022-10-13T07:24:39.233Z,12.20
2022-10-13T07:27:11.561Z,12.30
2022-10-13T07:29:43.636Z,12.40
2022-10-13T07:32:15.740Z,12.40
2022-10-13T07:34:47.843Z,12.50
2022-10-13T07:37:23.417Z,12.60
2022-10-13T07:39:57.074Z,12.60
2022-10-13T07:42:31.185Z,12.70
2022-10-13T07:45:04.236Z,12.90
2022-10-13T07:47:37.002Z,13.10
2022-10-13T07:50:10.319Z,13.20
2022-10-13T07:52:42.778Z,13.40
2022-10-13T07:55:15.029Z,13.50
2022-10-13T07:57:47.105Z,13.70
2022-10-13T08:00:19.299Z,13.80
2022-10-13T08:02:51.736Z,14.20
2022-10-13T08:05:23.805Z,14.50
2022-10-13T08:07:58.349Z,14.80
2022-10-13T08:10:30.997Z,14.90
2022-10-13T08:13:03.035Z,14.90
2022-10-13T08:15:35.146Z,14.90
2022-10-13T08:18:13.673Z,14.90
2022-10-13T08:20:46.686Z,15.00
2022-10-13T08:23:18.664Z,15.00
2022-10-13T08:25:51.613Z,15.10
2022-10-13T08:28:30.987Z,15.10
2022-10-13T08:31:03.173Z,15.20
2022-10-13T08:33:35.576Z,15.30
2022-10-13T08:36:08.604Z,15.40
2022-10-13T08:38:41.198Z,15.50
2022-10-13T08:41:23.443Z,15.70
2022-10-13T08:44:47.627Z,15.90
2022-10-13T08:47:27.169Z,16.00
2022-10-13T08:50:15.006Z,16.10
2022-10-13T08:52:55.144Z,16.10
2022-10-13T08:55:47.581Z,16.10
2022-10-13T08:58:27.127Z,16.10
2022-10-13T09:01:13.328Z,16.20
2022-10-13T09:04:40.064Z,16.20
2022-10-13T09:07:31.866Z,16.20
2022-10-13T09:10:07.994Z,16.30
2022-10-13T09:12:40.328Z,16.30
2022-10-13T09:15:12.694Z,16.40
2022-10-13T09:17:44.690Z,16.40
2022-10-13T09:20:36.554Z,16.50
2022-10-13T09:23:19.842Z,16.50
2022-10-13T09:25:56.061Z,16.60
2022-10-13T09:28:38.557Z,16.60
2022-10-13T09:31:37.599Z,16.70
2022-10-13T09:34:16.388Z,16.60
2022-10-13T09:36:56.871Z,16.60
2022-10-13T09:39:33.568Z,16.50
2022-10-13T09:42:34.968Z,16.50
2022-10-13T09:45:19.167Z,16.50
2022-10-13T09:47:57.643Z,16.50
2022-10-13T09:50:36.181Z,16.50
2022-10-13T09:53:34.689Z,16.40
2022-10-13T09:56:49.360Z,16.40
2022-10-13T09:59:40.859Z,16.40
2022-10-13T10:02:27.325Z,16.50
2022-10-13T10:05:20.106Z,16.50
2022-10-13T10:08:33.988Z,16.60
2022-10-13T10:11:47.738Z,16.60
2022-10-13T10:14:32.297Z,16.60
2022-10-13T10:17:43.765Z,16.60
2022-10-13T10:20:47.233Z,16.60
2022-10-13T10:23:47.906Z,16.50
2022-10-13T10:26:43.162Z,16.50
2022-10-13T10:29:47.047Z,16.50
2022-10-13T10:32:47.234Z,16.40
2022-10-13T10:35:57.390Z,16.40
2022-10-13T10:38:41.058Z,16.40
2022-10-13T10:41:55.904Z,16.40
2022-10-13T10:44:41.171Z,16.40
2022-10-13T10:47:26.832Z,16.40
2022-10-13T10:50:13.364Z,16.40
2022-10-13T10:53:09.452Z,16.40
2022-10-13T10:56:00.636Z,16.40
2022-10-13T10:58:58.630Z,16.40
2022-10-13T11:02:07.822Z,16.40
2022-10-13T11:04:53.282Z,16.50
2022-10-13T11:07:25.306Z,16.50
2022-10-13T11:10:22.164Z,16.50
2022-10-13T11:12:55.184Z,16.60
2022-10-13T11:15:47.360Z,16.60
2022-10-13T11:18:59.473Z,16.70
2022-10-13T11:21:54.196Z,16.70
2022-10-13T11:24:51.674Z,16.80
2022-10-13T11:27:33.305Z,16.90
2022-10-13T11:30:59.553Z,17.00
2022-10-13T11:33:53.472Z,17.00
2022-10-13T11:37:01.800Z,17.00
2022-10-13T11:40:14.616Z,17.00
2022-10-13T11:43:15.301Z,17.00
2022-10-13T11:46:25.447Z,17.00
2022-10-13T11:49:33.469Z,17.10
2022-10-13T11:52:21.011Z,17.10
2022-10-13T11:55:23.461Z,17.10
2022-10-13T11:58:20.191Z,17.10
2022-10-13T12:01:06.921Z,17.20
2022-10-13T12:03:46.208Z,17.20
2022-10-13T12:06:33.755Z,17.20
2022-10-13T12:09:19.766Z,17.20
2022-10-13T12:12:16.335Z,17.30
2022-10-13T12:14:53.446Z,17.40
2022-10-13T12:17:27.409Z,17.40
2022-10-13T12:20:26.064Z,17.50
2022-10-13T12:23:01.157Z,17.50
2022-10-13T12:25:38.991Z,17.60
2022-10-13T12:28:20.191Z,17.60
2022-10-13T12:30:59.916Z,17.80
2022-10-13T12:33:35.611Z,17.90
2022-10-13T12:36:18.767Z,18.10
2022-10-13T12:38:56.832Z,18.30
2022-10-13T12:41:36.409Z,18.50
2022-10-13T12:44:16.090Z,18.60
2022-10-13T12:47:39.414Z,18.60
2022-10-13T12:50:30.206Z,18.70
2022-10-13T12:53:10.788Z,18.80
2022-10-13T12:55:55.966Z,18.80
2022-10-13T12:58:33.726Z,18.90
2022-10-13T13:01:34.239Z,18.90
2022-10-13T13:04:41.668Z,19.00
2022-10-13T13:07:23.511Z,18.90
2022-10-13T13:10:16.581Z,18.90
2022-10-13T13:12:52.141Z,18.80
2022-10-13T13:15:25.658Z,18.80
2022-10-13T13:18:27.378Z,18.70
2022-10-13T13:21:06.643Z,18.60
2022-10-13T13:23:42.927Z,18.60
2022-10-13T13:26:20.990Z,18.60
2022-10-13T13:28:56.063Z,18.60
2022-10-13T13:31:28.364Z,18.50
2022-10-13T13:34:00.559Z,18.50
2022-10-13T13:36:32.782Z,18.40
2022-10-13T13:39:06.779Z,18.40
2022-10-13T13:41:47.114Z,18.40
2022-10-13T13:44:19.040Z,18.40
2022-10-13T13:46:51.045Z,18.40
2022-10-13T13:49:23.185Z,18.30
2022-10-13T13:51:55.138Z,18.30
2022-10-13T13:54:27.045Z,18.30
2022-10-13T13:56:59.133Z,18.30
2022-10-13T13:59:31.275Z,18.20
2022-10-13T14:02:04.222Z,18.20
2022-10-13T14:04:38.163Z,18.20
2022-10-13T14:07:10.893Z,18.10
2022-10-13T14:09:43.421Z,18.00
2022-10-13T14:12:15.919Z,18.00
2022-10-13T14:14:48.097Z,17.90
2022-10-13T14:17:20.240Z,17.80
2022-10-13T14:19:54.213Z,17.70
2022-10-13T14:22:26.860Z,17.60
2022-10-13T14:24:59.221Z,17.60
2022-10-13T14:27:31.311Z,17.50
2022-10-13T14:30:09.600Z,17.40
2022-10-13T14:32:42.615Z,17.40
2022-10-13T14:35:14.655Z,17.30
2022-10-13T14:37:46.897Z,17.30
2022-10-13T14:40:19.137Z,17.20
2022-10-13T14:42:51.143Z,17.20
2022-10-13T14:45:23.145Z,17.10
2022-10-13T14:47:55.267Z,17.00
2022-10-13T14:50:27.245Z,17.00
2022-10-13T14:52:59.270Z,16.90
2022-10-13T14:55:32.245Z,16.80
2022-10-13T14:58:05.230Z,16.70
2022-10-13T15:00:37.997Z,16.70
2022-10-13T15:03:10.455Z,16.70
2022-10-13T15:05:43.206Z,16.60
2022-10-13T15:08:16.372Z,16.60
2022-10-13T15:10:48.909Z,16.60
2022-10-13T15:13:31.848Z,16.60
2022-10-13T15:16:05.206Z,16.60
2022-10-13T15:18:39.309Z,16.60
2022-10-13T15:21:15.444Z,16.60
2022-10-13T15:23:49.765Z,16.50
2022-10-13T15:26:23.312Z,16.50
2022-10-13T15:28:56.359Z,16.50
2022-10-13T15:31:31.621Z,16.50
2022-10-13T15:34:04.454Z,16.50
2022-10-13T15:36:37.853Z,16.50
2022-10-13T15:39:11.524Z,16.40
2022-10-13T15:41:44.219Z,16.40
2022-10-13T15:44:19.723Z,16.30
2022-10-13T15:47:07.962Z,16.30
2022-10-13T15:49:41.266Z,16.20
2022-10-13T15:52:14.264Z,16.20
2022-10-13T15:54:49.035Z,16.20
2022-10-13T15:57:23.101Z,16.10
2022-10-13T15:59:56.133Z,16.00
2022-10-13T16:02:28.852Z,16.00
2022-10-13T16:05:05.043Z,16.00
2022-10-13T16:07:40.965Z,15.90
2022-10-13T16:10:14.913Z,15.90
2022-10-13T16:12:49.881Z,15.90
2022-10-13T16:15:25.359Z,15.90
2022-10-13T16:18:01.030Z,15.80
2022-10-13T16:20:43.520Z,15.80
2022-10-13T16:23:18.965Z,15.80
2022-10-13T16:25:52.664Z,15.80
2022-10-13T16:28:24.801Z,15.70
2022-10-13T16:31:10.476Z,15.70
2022-10-13T16:33:50.111Z,15.70
2022-10-13T16:36:31.771Z,15.70
2022-10-13T16:39:07.849Z,15.60
2022-10-13T16:41:40.189Z,15.60
2022-10-13T16:44:12.495Z,15.60
2022-10-13T16:46:45.299Z,15.50
2022-10-13T16:49:20.033Z,15.50
2022-10-13T16:51:52.819Z,15.40
2022-10-13T16:54:24.925Z,15.50
2022-10-13T16:56:57.007Z,15.40
2022-10-13T16:59:29.871Z,15.40
2022-10-13T17:02:03.096Z,15.30
2022-10-13T17:04:35.315Z,15.30
2022-10-13T17:07:07.627Z,15.30
2022-10-13T17:09:39.911Z,15.20
2022-10-13T17:12:11.989Z,15.20
2022-10-13T17:14:44.139Z,15.10
2022-10-13T17:17:19.673Z,15.10
2022-10-13T17:19:52.200Z,15.10
2022-10-13T17:22:24.397Z,15.00
2022-10-13T17:24:56.566Z,15.00
2022-10-13T17:27:28.775Z,15.00
2022-10-13T17:30:01.002Z,14.90
2022-10-13T17:32:38.921Z,14.90
2022-10-13T17:35:14.431Z,14.90
2022-10-13T17:37:49.946Z,14.90
2022-10-13T17:40:22.410Z,14.80
2022-10-13T17:42:55.269Z,14.80
2022-10-13T17:45:29.503Z,14.80
2022-10-13T17:48:01.982Z,14.70
2022-10-13T17:50:35.940Z,14.70
2022-10-13T17:53:08.245Z,14.70
2022-10-13T17:55:41.095Z,14.70
2022-10-13T17:58:14.559Z,14.70
2022-10-13T18:01:11.896Z,14.60
2022-10-13T18:03:46.186Z,14.60
2022-10-13T18:06:23.575Z,14.60
2022-10-13T18:08:56.201Z,14.60
2022-10-13T18:11:29.185Z,14.60
2022-10-13T18:17:41.882Z,14.50
2022-10-13T18:20:14.100Z,14.50
2022-10-13T18:22:46.191Z,14.50
2022-10-13T18:25:18.867Z,14.50
2022-10-13T18:27:52.462Z,14.50
2022-10-13T18:30:33.223Z,14.40
2022-10-13T18:33:06.821Z,14.40
2022-10-13T18:35:40.015Z,14.40
2022-10-13T18:38:13.021Z,14.40
2022-10-13T18:40:50.025Z,14.40
2022-10-13T18:43:26.604Z,14.40
2022-10-13T18:46:02.415Z,14.40
2022-10-13T18:48:36.121Z,14.40
2022-10-13T18:51:11.287Z,14.40
2022-10-13T18:53:47.750Z,14.40
2022-10-13T18:56:23.974Z,14.30
2022-10-13T18:59:01.178Z,14.40
2022-10-13T19:01:36.271Z,14.30
2022-10-13T19:04:09.895Z,14.40
2022-10-13T19:06:44.605Z,14.30
2022-10-13T19:09:17.881Z,14.40
2022-10-13T19:11:50.728Z,14.30
2022-10-13T19:14:27.367Z,14.40
2022-10-13T19:17:02.371Z,14.30
2022-10-13T19:19:34.939Z,14.30
2022-10-13T19:22:07.913Z,14.30
2022-10-13T19:24:41.200Z,14.30
2022-10-13T19:27:13.852Z,14.30
2022-10-13T19:29:46.576Z,14.20
2022-10-13T19:32:24.186Z,14.30
2022-10-13T19:34:57.390Z,14.20
2022-10-13T19:37:32.418Z,14.20
2022-10-13T19:40:07.474Z,14.20
2022-10-13T19:42:40.428Z,14.20
2022-10-13T19:45:12.870Z,14.20
2022-10-13T19:47:44.930Z,14.20
2022-10-13T19:50:17.125Z,14.10
2022-10-13T19:52:49.669Z,14.10
2022-10-13T19:55:22.597Z,14.10
2022-10-13T19:57:55.274Z,14.10
2022-10-13T20:00:27.515Z,14.10
2022-10-13T20:03:00.289Z,14.10
2022-10-13T20:05:33.031Z,14.10
2022-10-13T20:08:09.536Z,14.20
2022-10-13T20:10:43.864Z,14.20
2022-10-13T20:13:15.998Z,14.10
2022-10-13T20:15:50.977Z,14.10
2022-10-13T20:18:41.823Z,14.10
2022-10-13T20:21:21.563Z,14.00
2022-10-13T20:23:56.028Z,14.00
2022-10-13T20:26:44.081Z,14.00
2022-10-13T20:29:19.440Z,14.00
2022-10-13T20:31:52.703Z,13.90
2022-10-13T20:34:27.465Z,13.90
2022-10-13T20:37:00.464Z,13.90
2022-10-13T20:39:37.446Z,13.80
2022-10-13T20:42:15.961Z,13.70
2022-10-13T20:44:51.448Z,13.70
2022-10-13T20:47:27.734Z,13.70
2022-10-13T20:50:03.252Z,13.70
2022-10-13T20:52:40.289Z,13.60
2022-10-13T20:55:18.061Z,13.60
2022-10-13T20:57:56.495Z,13.50
2022-10-13T21:00:34.286Z,13.50
2022-10-13T21:03:15.167Z,13.50
2022-10-13T21:05:57.874Z,13.50
2022-10-13T21:08:33.281Z,13.40
2022-10-13T21:11:11.428Z,13.40
2022-10-13T21:13:45.811Z,13.40
2022-10-13T21:16:27.483Z,13.50
2022-10-13T21:19:00.037Z,13.40
2022-10-13T21:21:35.035Z,13.40
2022-10-13T21:24:08.502Z,13.40
2022-10-13T21:26:41.607Z,13.40
2022-10-13T21:29:13.780Z,13.40
2022-10-13T21:31:46.135Z,13.30
2022-10-13T21:34:18.208Z,13.40
2022-10-13T21:36:51.102Z,13.40
2022-10-13T21:39:24.147Z,13.40
2022-10-13T21:41:56.573Z,13.50
2022-10-13T21:44:30.900Z,13.40
2022-10-13T21:47:03.021Z,13.40
2022-10-13T21:49:35.197Z,13.40
2022-10-13T21:52:07.502Z,13.40
2022-10-13T21:54:39.733Z,13.40
2022-10-13T21:57:12.023Z,13.40
2022-10-13T21:59:44.603Z,13.40
2022-10-13T22:02:17.608Z,13.40
2022-10-13T22:04:49.919Z,13.30
2022-10-13T22:07:22.304Z,13.30
2022-10-13T22:09:55.758Z,13.30
2022-10-13T22:12:27.836Z,13.30
2022-10-13T22:15:00.282Z,13.30
2022-10-13T22:17:32.891Z,13.30
2022-10-13T22:20:05.339Z,13.30
2022-10-13T22:22:37.819Z,13.30
2022-10-13T22:25:10.199Z,13.30
2022-10-13T22:27:42.321Z,13.30
2022-10-13T22:30:37.108Z,13.30
2022-10-13T22:33:09.492Z,13.30
2022-10-13T22:35:41.767Z,13.30
2022-10-13T22:38:15.029Z,13.30
2022-10-13T22:40:47.338Z,13.30
2022-10-13T22:43:19.699Z,13.30
2022-10-13T22:45:52.404Z,13.30
2022-10-13T22:48:24.893Z,13.30
2022-10-13T22:50:56.980Z,13.30
2022-10-13T22:53:28.984Z,13.30
2022-10-13T22:56:07.403Z,13.30
2022-10-13T22:58:40.554Z,13.30
2022-10-13T23:01:14.979Z,13.20
2022-10-13T23:03:57.729Z,13.20
2022-10-13T23:06:32.822Z,13.20
2022-10-13T23:09:08.056Z,13.20
2022-10-13T23:11:42.977Z,13.20
2022-10-13T23:14:15.003Z,13.20
2022-10-13T23:16:47.036Z,13.20
2022-10-13T23:19:20.432Z,13.20
2022-10-13T23:21:52.560Z,13.20
2022-10-13T23:24:24.571Z,13.20
2022-10-13T23:27:00.375Z,13.20
2022-10-13T23:29:32.382Z,13.20
2022-10-13T23:32:09.536Z,13.20
2022-10-13T23:34:42.005Z,13.10
2022-10-13T23:37:13.991Z,13.20
2022-10-13T23:39:46.061Z,13.20
2022-10-13T23:42:18.082Z,13.20
2022-10-13T23:44:50.171Z,13.20
2022-10-13T23:47:22.623Z,13.10
2022-10-13T23:49:55.074Z,13.10
2022-10-13T23:52:27.219Z,13.10
2022-10-13T23:54:59.541Z,13.10
2022-10-13T23:57:31.629Z,13.10
